Terminal Aerodrome Forecast
Issued by NWS Denver/Boulder, CO

Home | Current Version | Previous Version | Text Only | Print | Product List | Glossary On
Versions: 1 2 3 4 5 6 7 8 9 10 11 12 13 14 15 16 17 18 19 20 21 22 23 24 25 26 27 28 29 30 31 32 33 34 35 36 37 38 39 40 41 42 43 44 45 46 47 48 49 50
000
FTUS45 KBOU 311804 AAA
TAFDEN
TAF AMD
KDEN 311804Z 3118/0124 26005KT P6SM VCSH FEW015 BKN070
     FM311900 05006KT P6SM SCT070 BKN110
     FM312100 05007KT P6SM VCTS BKN060CB BKN120
     FM010200 12007KT P6SM SCT060 BKN120
     FM010400 20007KT P6SM FEW120
     FM011800 14006KT P6SM SCT060 PROB30 0121/0124 VRB15G25KT -TSRA
      BKN060CB=

USA.gov is the U.S. government's official web portal to all federal, state and local government web resources and services.